This is the latest recevied weather packets stored in our database for station/object KD0RIH. If no packets are shown the sender has not sent any weather packets the latest 10 day(s).
| Time | Temp. | Humidity | Pressure | Rain* | Wind** | Luminosity | Snow |
|---|---|---|---|---|---|---|---|
| 1777952678 | 20° C | 34% | 1004.3 hPa | 0 mm | - | 0 W/m² | - |
| 1777952376 | 20.56° C | 33% | 1004.3 hPa | 0 mm | - | 0 W/m² | - |
| 1777952072 | 20.56° C | 33% | 1004.8 hPa | 0 mm | - | 0 W/m² | - |
| 1777951770 | 21.11° C | 33% | 1004.5 hPa | 0 mm | - | 0 W/m² | - |
| 1777951467 | 21.11° C | 32% | 1004.5 hPa | 0 mm | - | 0 W/m² | - |
| 1777951164 | 21.11° C | 33% | 1004.1 hPa | 0 mm | - | 0 W/m² | - |
| 1777950861 | 21.67° C | 33% | 1004 hPa | 0 mm | - | 0 W/m² | - |
| 1777950558 | 21.67° C | 34% | 1004.2 hPa | 0 mm | - | 0 W/m² | - |
| 1777950253 | 22.22° C | 34% | 1004.3 hPa | 0 mm | - | 0 W/m² | - |
| 1777949949 | 22.22° C | 36% | 1004 hPa | 0 mm | - | 0 W/m² | - |
| 1777949647 | 22.22° C | 37% | 1003.9 hPa | 0 mm | - | 0 W/m² | - |
| 1777949346 | 22.78° C | 38% | 1003.9 hPa | 0 mm | - | 0 W/m² | - |
| 1777949043 | 22.78° C | 39% | 1003.3 hPa | 0 mm | - | 0 W/m² | - |
| 1777948739 | 22.78° C | 39% | 1003.4 hPa | 0 mm | - | 0 W/m² | - |
| 1777948437 | 22.78° C | 49% | 1002.7 hPa | 0 mm | - | 0 W/m² | - |
| 1777948133 | 22.22° C | 49% | 1002.5 hPa | 0 mm | - | 0 W/m² | - |
| 1777947830 | 22.22° C | 50% | 1002.4 hPa | 0 mm | - | 0 W/m² | - |
| 1777947528 | 22.22° C | 52% | 1002.6 hPa | 0 mm | - | 0 W/m² | - |
| 1777947224 | 22.22° C | 53% | 1002.4 hPa | 0 mm | - | 0 W/m² | - |
| 1777946920 | 22.22° C | 53% | 1002.3 hPa | 0 mm | - | 0 W/m² | - |
| 1777946616 | 22.22° C | 53% | 1002.1 hPa | 0 mm | - | 0 W/m² | - |
| 1777946313 | 22.22° C | 52% | 1002 hPa | 0 mm | - | 0 W/m² | - |
| 1777946010 | 22.78° C | 49% | 1002.1 hPa | 0 mm | - | 0 W/m² | - |
| 1777945707 | 22.78° C | 48% | 1001.9 hPa | 0 mm | - | 0 W/m² | - |
| 1777945404 | 22.78° C | 50% | 1001.9 hPa | 0 mm | - | 0 W/m² | - |
* Rain latest hour (hover to see other rain measurements)
** Current wind speed in m/s (hover to see current wind gust speed)